首页
METAR-TAF:

METAR-TAF

机场 :

Hastings Municipal Airport

黑斯廷斯, 內布拉斯加州, 美国

纬度: 40-36-02N, 经度: 098-25-33W, 海拔: 595米

当前天气观测

该预报发布于34分钟前的05:53 UTC
风速5节,风向
温度 24°C
湿度 65%
气压 1010 hPa
能見度: 16.1公里
天空无云

METAR: KHSI 130553Z AUTO 19005KT 10SM CLR 24/17 A2982 RMK AO2 SLP075 T02390167 10356 20233 403720189 50012

时间: 01:27 (06:27 UTC)


TAF: 丢失

超过4000个机场的气象观测和天气预报(METAR&TAF报告)。

可查询的气象台以黄色和红色小点在地图上表示。

将鼠标移到小点上方,可查看气象台名称。

然后点击查看天气观测和预报。

如需切换地图:点击带黑十字的绿色按钮放大地图;点击带横线的绿色按钮缩小地图;或者点击绿色箭头查看邻近地区的地图。


METAR-TAF: